Hockingport, OH (45739)

11:01 EST le 20 février 2017 (GMT -0500)
Wadesville | | Change Station
Avis météorologiques actifs: Dense Fog Advisory

Alt. 778 ft 39.14 °N, 81.63 °W | Updated 35 seconds ago

Brouillard
Brouillard
61.7 ° F
Paraît 61.7 ° F
N
4.0
Vent Variable Vent de Sud

Aujourd'hui
Haut(e) -- | Bas -- ° F
--% Risque de précip.
Hier
Haut(e) -- | Bas -- ° F
Precip. -- pouce
Pression 30.31 pouce
Visibilité 1.0 Miles terrestres
Nuages Nuageux 200 ft
Point de rosée 50 ° F
Humidité 66%
Précipitations 0.00 pouce
Profondeur de la couche neigeuse Non disponible.
7:11 AM 6:10 PM
Lune descendante, 33% visible
SPECI KPKB 201531Z 04003KT 1SM R03/P6000FT BR BKN002 07/06 A3031 RMK AO2 T00720061
Pression 30.31 pouce
Visibilité 1.0 Miles terrestres
Nuages Nuageux 200 ft
Point de rosée 50 ° F
Humidité 66%
Précipitations 0.00 pouce
Profondeur de la couche neigeuse Non disponible.
7:11 AM 6:10 PM
Lune descendante, 33% visible
SPECI KPKB 201531Z 04003KT 1SM R03/P6000FT BR BKN002 07/06 A3031 RMK AO2 T00720061

Get Your Daily Forecast Email!

Thanks for signing up!

Be on the lookout for a verification email in your inbox.

You'll start receiving the daily forecast at 8 AM.

×

10-Day Weather Forecast

Almanac

Astronomie

Feb. 20, 2017 Lever Coucher
Temps réel
Crépuscule civil
Crépuscule nautique
Crépuscule astronomique
Lune
Durée de lumière visible
Longueur du jour
Tomorrow will be .
, % of the Moon is Illuminated

Extrêmes aujourd'hui

State Highs State Lows

Community

WunderPhotos

Upload Photos

1,962,540 Photos téléchargées !

WunderBlog® & News

Nearby

Qualité de l'air

  Qualité de l'air Indice de la qualité de l'air Polluant
Not available.

Épaisseur de neige

Station Depth Altitude

Activité sismique

Ville Distance Mag. Time & Date
Minimum magnitude displayed is 2.5.

Températures des eaux côtières

Lieu Température

Stations

Stations météo à proximité

Emplacement de la station Température Refroidissement éolien Point de rosée Humidité Vent Precip. Alt. Mise à jour Type
                   

Watches & Warnings

Dense Fog Advisory
Issued: 10:59 EST Feb. 20, 2017 – National Weather Service

... Dense fog advisory will expire at 11 am EST this morning...

The fog was beginning to lift, and will continue to do so through
noon today. Therefore, the fog advisory is allowed to expire.


Trm